Aérodrome :
LOGIN :

S'inscrire | Disclaimer

   EN    FR    IT 

 










Légende :    VFR   VFR Marginal   IFR   IFR Intensif   IFR Très Intensif
Visi : 
Plafond : 
>= 8 km
>= 3000ft
5 à 8 km
1000 à 3000 ft
1500m à 5 km
500 à 1000 ft
800 à 1500m
200 à 500 ft
< 800m
< 200 ft
Symboles :   Orages  Brouillard  Fortes neiges  Fortes précipitations  Vent > 20 kt
SIGMETs :   Divers  Orages  Givrage  Turbulence  Onde Orograph.  Cendres Volcan.







- Altitude de l'aérodrome : 162 ft
- Code IATA : BOD
- Voir les cartes d'approche


LFBD - Bordeaux / Merignac

DERNIER METAR :
  • 182000Z AUTO 19010KT 9999 FEW029 BKN043 OVC062 10/07 Q1015 TEMPO 4000 RA OVC010

METARs EXPIRÉS :
  • 181930Z AUTO 17008KT CAVOK 09/07 Q1015 TEMPO 4000 RA OVC010
  • 181900Z AUTO 16008KT 9999 -RA NSC 09/08 Q1014 TEMPO 4000 RA OVC010 BECMG 22010KT
  • 181830Z AUTO 16007KT 9999 -RA ///TCU 09/08 Q1014 TEMPO 4000 RA OVC010 BECMG 22010KT
  • 181800Z AUTO 14009KT 9999 -RA ///TCU 10/08 Q1014 BECMG 22010KT BKN040
  • 181730Z AUTO 16007KT 9999 -RA ///TCU 10/08 Q1014 BECMG 22010KT BKN040
  • 181700Z AUTO 16006KT 130V190 9999 -RA ///TCU 10/07 Q1013 BECMG BKN040

TAF TAF LFBD
Valide du 18 à 18h jusqu'au 20 à 00h UTC


181700Z 1818/1924 16010KT CAVOK TX12/1913Z TN07/1906Z
BECMG 1818/1819 22010KT BKN040
TEMPO 1820/1823 4000 RA OVC010
PROB40
TEMPO 1901/1906 BKN005
TEMPO 1910/1919 21015G25KT 4000 SHRA BKN020TCU
PROB30
TEMPO 1912/1914 2000 -TSRA FEW020CB BKN025TCU
ATIS : +33 5 57 92 81 04
Pas de NOTAMs connus pour ce terrain.
1 SIGMET publié pour la FIR Bordeaux (LFBB) :
 
Turbulence forte
LFBB SIGMET 9 VALID 181900/182200 LFPW
LFBB BORDEAUX FIR/UIR SEV TURB FCST WI N4230 E00030 - N4300 W00145 - N4330 W00145 - N4300 E00045 - N4230 E00030 SFC/FL080 STNR WKN=



MET'MAP, la Météo Aéronautique d'un coup d'oeil ! - Copyright ORBIFLY Décembre 2007 - Disclaimer

ORBIFLY MET'MAP TEAM :

Programmation & Développement : Alexandra Zaïnal
Conception & Développement : Baudouin d'Aumeries
Co-Programmation & Développement : Marc-Olivier Méhu
Soutien technique & logistique : Manuel Goepfert

Contact : metmap@orbifly.com




SOURCES & CREDITS :

   NOAA